Time;durP1;ratioP1;P1;durP2;ratioP2;P2;SDS_P1;SDS_P2;PMS_P1;PMS_P2;Temp;Humidity;BMP_temperature;BMP_pressure;BME280_temperature;BME280_humidity;BME280_pressure;Samples;Min_cycle;Max_cycle;Signal;HPM_P1;HPM_P2
2021/03/17 00:02:33;;;;;;;43.27;22.03;;;;;;;2.21;68.24;99983.89;147756;1147;104639;-76
2021/03/17 00:05:55;;;;;;;40.38;20.57;;;;;;;2.20;67.94;99981.39;147783;1146;104553;-75
2021/03/17 00:09:17;;;;;;;31.75;17.90;;;;;;;2.20;67.51;99982.22;147568;1147;104471;-77
2021/03/17 00:12:38;;;;;;;;;;;;;;;2.24;68.84;99975.80;147596;1146;104474;-76
2021/03/17 00:16:01;;;;;;;33.23;16.75;;;;;;;2.21;67.46;99977.80;147813;1147;104921;-75
2021/03/17 00:19:23;;;;;;;34.67;18.13;;;;;;;2.13;67.68;99986.22;147749;1146;104600;-75
2021/03/17 00:22:46;;;;;;;37.42;19.05;;;;;;;2.04;68.60;99981.58;147564;1147;104520;-77
2021/03/17 00:26:08;;;;;;;37.13;19.07;;;;;;;2.01;68.80;99987.08;147801;1147;104543;-73
2021/03/17 00:29:30;;;;;;;33.13;16.43;;;;;;;2.00;68.50;99982.74;147769;1146;105005;-73
2021/03/17 00:32:52;;;;;;;33.75;18.40;;;;;;;1.96;71.01;99985.60;147777;1147;104467;-73
2021/03/17 00:36:14;;;;;;;34.92;18.55;;;;;;;1.87;69.47;99986.22;147729;1147;104623;-75
2021/03/17 00:39:35;;;;;;;;;;;;;;;1.74;69.71;99985.36;147859;1147;104470;-79
2021/03/17 00:42:57;;;;;;;35.33;17.92;;;;;;;1.66;69.94;99987.67;147789;1147;104500;-75
2021/03/17 00:46:19;;;;;;;36.85;18.25;;;;;;;1.57;69.57;99989.95;147592;1147;104556;-76
2021/03/17 00:49:24;;;;;;;36.98;18.67;;;;;;;1.49;69.12;99994.89;147460;1148;104535;-74
2021/03/17 00:52:29;;;;;;;32.53;16.27;;;;;;;1.44;69.52;99989.08;147408;1148;104610;-74
2021/03/17 00:55:44;;;;;;;35.33;19.37;;;;;;;1.41;69.71;99991.09;147766;1147;104546;-74
2021/03/17 00:59:01;;;;;;;37.48;18.35;;;;;;;1.35;69.44;99993.17;147808;1147;104472;-75
2021/03/17 01:02:04;;;;;;;30.65;15.72;;;;;;;1.26;71.87;99992.94;147339;1147;104486;-74
2021/03/17 01:05:10;;;;;;;38.63;17.87;;;;;;;1.25;69.81;99989.47;147578;1147;104546;-74
2021/03/17 01:08:14;;;;;;;34.60;18.35;;;;;;;1.30;69.61;99991.78;147815;1147;104605;-75
2021/03/17 01:11:17;;;;;;;30.75;15.45;;;;;;;1.32;69.89;99982.84;147745;1147;104544;-75
2021/03/17 01:14:21;;;;;;;38.53;19.07;;;;;;;1.36;69.91;99983.48;147590;1147;104857;-75
2021/03/17 01:17:24;;;;;;;39.50;20.05;;;;;;;1.36;69.05;99986.12;147738;1147;104547;-75
2021/03/17 01:20:29;;;;;;;34.18;18.62;;;;;;;1.34;69.35;99988.84;147680;1146;104494;-74
2021/03/17 01:23:32;;;;;;;178.87;63.87;;;;;;;1.31;69.70;99986.44;147499;1147;104578;-75
2021/03/17 01:26:35;;;;;;;39.58;19.75;;;;;;;1.31;69.79;99986.44;147754;1147;104534;-78
2021/03/17 01:29:39;;;;;;;38.50;18.48;;;;;;;1.28;69.67;99993.67;147671;1147;104549;-76
2021/03/17 01:32:42;;;;;;;40.90;20.57;;;;;;;1.22;69.55;99983.56;147685;1147;104543;-75
2021/03/17 01:35:48;;;;;;;33.70;17.17;;;;;;;1.17;69.48;99989.97;147699;1146;104546;-74
2021/03/17 01:38:51;;;;;;;34.57;17.97;;;;;;;1.11;69.56;99985.09;147693;1147;104599;-74
2021/03/17 01:41:54;;;;;;;36.33;17.95;;;;;;;1.08;69.80;99980.05;147478;1146;104543;-77
2021/03/17 01:44:57;;;;;;;42.47;23.30;;;;;;;1.15;69.70;99983.94;147811;1147;104556;-75
2021/03/17 01:48:01;;;;;;;29.33;15.67;;;;;;;1.22;69.22;99983.56;147765;1147;104582;-74
2021/03/17 01:51:05;;;;;;;32.85;16.97;;;;;;;1.21;69.24;99982.70;147800;1146;104538;-74
2021/03/17 01:54:08;;;;;;;34.45;17.55;;;;;;;1.13;69.62;99980.57;147739;1146;104613;-74
2021/03/17 01:57:13;;;;;;;32.40;17.43;;;;;;;1.06;69.58;99983.70;147857;1146;104469;-74
2021/03/17 02:00:18;;;;;;;30.45;15.78;;;;;;;0.98;69.84;99986.81;147643;1147;104462;-76
2021/03/17 02:03:21;;;;;;;34.90;17.70;;;;;;;0.91;69.72;99990.80;147806;1147;104925;-73
2021/03/17 02:06:25;;;;;;;35.68;17.10;;;;;;;0.85;70.49;99991.16;147717;1147;104455;-74
2021/03/17 02:09:28;;;;;;;33.48;15.48;;;;;;;0.80;71.03;99998.52;147642;1146;104593;-74
2021/03/17 02:12:49;;;;;;;39.78;19.82;;;;;;;0.77;70.22;99984.64;147745;1146;104489;-73
2021/03/17 02:16:02;;;;;;;39.80;18.97;;;;;;;0.74;70.22;99995.33;147669;1148;104547;-76
2021/03/17 02:19:28;;;;;;;34.25;17.25;;;;;;;0.71;70.57;99992.05;147432;1146;104467;-71
2021/03/17 02:22:44;;;;;;;33.87;18.37;;;;;;;0.68;70.60;99990.47;147381;1146;104479;-73
2021/03/17 02:26:08;;;;;;;32.40;16.40;;;;;;;0.65;70.64;99990.64;147778;1148;104688;-73
2021/03/17 02:29:48;;;;;;;27.70;14.73;;;;;;;0.63;70.36;99992.52;147818;1146;104457;-74
2021/03/17 02:33:23;;;;;;;29.32;14.70;;;;;;;0.64;70.44;99994.23;147693;1146;104543;-74
2021/03/17 02:36:31;;;;;;;34.30;17.43;;;;;;;0.61;70.70;99994.41;147407;1148;104545;-77
2021/03/17 02:39:39;;;;;;;34.25;16.37;;;;;;;0.59;71.06;99996.28;147798;1147;104549;-74
2021/03/17 02:42:48;;;;;;;33.23;16.27;;;;;;;0.62;70.20;99992.61;147757;1146;104616;-75
2021/03/17 02:45:56;;;;;;;32.00;17.03;;;;;;;0.58;70.69;99986.73;147772;1147;104655;-73
2021/03/17 02:49:09;;;;;;;33.15;16.85;;;;;;;0.61;70.92;99994.41;147751;1147;104449;-76
2021/03/17 02:52:14;;;;;;;33.63;18.20;;;;;;;0.59;70.67;99993.66;147776;1147;104471;-76
2021/03/17 02:55:19;;;;;;;28.75;15.43;;;;;;;0.61;71.02;99994.41;147804;1147;104550;-76
2021/03/17 02:58:24;;;;;;;34.48;17.25;;;;;;;0.60;70.67;99995.36;147566;1147;104864;-75
2021/03/17 03:01:31;;;;;;;30.72;16.30;;;;;;;0.57;71.46;99996.38;147729;1147;104512;-74
2021/03/17 03:04:36;;;;;;;25.77;13.20;;;;;;;0.55;71.08;100005.30;147758;1147;104477;-76
2021/03/17 03:07:41;;;;;;;30.88;16.50;;;;;;;0.54;71.06;99995.72;147881;1147;104568;-75
2021/03/17 03:10:47;;;;;;;29.25;15.08;;;;;;;0.53;70.89;100007.17;147821;1147;104477;-76
2021/03/17 03:13:51;;;;;;;28.43;14.33;;;;;;;0.43;71.23;100006.91;147725;1147;104537;-76
2021/03/17 03:16:58;;;;;;;29.77;15.23;;;;;;;0.35;72.53;100009.16;147527;1146;104523;-79
2021/03/17 03:20:06;;;;;;;28.98;15.58;;;;;;;0.27;72.36;100003.52;147579;1147;104897;-76
2021/03/17 03:23:10;;;;;;;30.77;16.60;;;;;;;0.23;72.02;100010.73;147534;1147;104476;-73
2021/03/17 03:26:14;;;;;;;33.63;17.37;;;;;;;0.20;71.69;100021.42;147888;1148;104551;-76
2021/03/17 03:29:18;;;;;;;32.20;16.30;;;;;;;0.17;71.86;100016.35;147817;1146;104543;-81
2021/03/17 03:32:21;;;;;;;29.80;15.85;;;;;;;0.16;71.72;100019.93;147688;1147;104556;-79
2021/03/17 03:35:25;;;;;;;30.27;14.83;;;;;;;0.12;71.76;100024.52;147783;1147;104544;-80
2021/03/17 03:38:28;;;;;;;32.33;15.88;;;;;;;0.12;71.28;100024.52;147545;1146;104467;-83
2021/03/17 03:41:32;;;;;;;28.52;14.93;;;;;;;0.11;71.75;100020.19;147838;1148;104470;-79
2021/03/17 03:44:35;;;;;;;31.35;13.95;;;;;;;0.08;71.69;100027.39;147779;1146;104617;-77
2021/03/17 03:47:39;;;;;;;32.10;15.80;;;;;;;0.09;72.42;100034.34;147761;1147;104542;-79
2021/03/17 03:50:45;;;;;;;29.70;15.53;;;;;;;0.05;72.18;100041.55;147730;1146;104552;-77
2021/03/17 03:53:55;;;;;;;28.75;14.28;;;;;;;0.03;71.73;100039.96;147311;1147;104504;-76
2021/03/17 03:57:03;;;;;;;36.10;16.48;;;;;;;0.07;71.59;100036.22;147317;1147;104474;-78
2021/03/17 04:00:10;;;;;;;30.10;16.50;;;;;;;0.02;71.42;100027.77;147453;1147;105490;-77
2021/03/17 04:03:14;;;;;;;32.00;16.97;;;;;;;-0.04;72.77;100036.84;147492;1147;104479;-79
2021/03/17 04:06:18;;;;;;;29.95;15.15;;;;;;;-0.04;72.51;100042.95;147503;1146;104457;-76
2021/03/17 04:09:26;;;;;;;25.82;14.30;;;;;;;0.01;72.12;100047.91;147613;1147;104549;-77
2021/03/17 04:12:33;;;;;;;33.73;17.17;;;;;;;0.05;72.03;100051.20;147493;1146;104557;-76
2021/03/17 04:15:39;;;;;;;30.80;16.82;;;;;;;0.10;73.40;100042.12;147358;1148;104611;-78
2021/03/17 04:18:45;;;;;;;24.75;13.98;;;;;;;0.13;72.94;100054.20;147556;1147;104503;-78
2021/03/17 04:21:49;;;;;;;35.60;16.87;;;;;;;0.17;72.74;100053.09;147795;1147;104550;-75
2021/03/17 04:24:54;;;;;;;31.50;16.40;;;;;;;0.25;73.04;100055.25;147783;1147;104448;-74
2021/03/17 04:27:59;;;;;;;29.55;15.18;;;;;;;0.29;73.39;100059.38;147593;1147;104473;-76
2021/03/17 04:31:03;;;;;;;33.78;17.23;;;;;;;0.31;73.28;100054.88;147314;1146;104601;-76
2021/03/17 04:34:09;;;;;;;32.03;15.13;;;;;;;0.23;75.67;100062.38;147573;1147;104534;-76
2021/03/17 04:37:12;;;;;;;32.83;17.27;;;;;;;0.20;74.08;100066.03;147796;1147;104558;-76
2021/03/17 04:40:18;;;;;;;31.62;15.83;;;;;;;0.27;75.79;100069.98;147824;1147;104473;-76
2021/03/17 04:43:21;;;;;;;27.22;14.03;;;;;;;0.30;74.97;100061.91;147836;1145;104486;-75
2021/03/17 04:46:25;;;;;;;33.15;16.60;;;;;;;0.37;74.88;100068.48;147766;1147;104597;-82
2021/03/17 04:49:29;;;;;;;28.87;15.32;;;;;;;0.40;75.08;100070.07;147760;1146;104572;-79
2021/03/17 04:52:36;;;;;;;26.33;14.25;;;;;;;0.43;75.45;100069.90;147736;1146;104466;-72
2021/03/17 04:55:39;;;;;;;26.15;13.05;;;;;;;0.45;74.26;100073.27;147400;1146;104546;-77
2021/03/17 04:58:43;;;;;;;27.37;14.55;;;;;;;0.44;75.07;100071.57;147782;1146;104956;-75
2021/03/17 05:01:47;;;;;;;25.88;14.33;;;;;;;0.44;74.62;100075.98;147750;1146;104614;-78
2021/03/17 05:04:53;;;;;;;27.60;14.43;;;;;;;0.41;74.85;100081.44;147890;1147;104538;-76
2021/03/17 05:07:57;;;;;;;25.35;14.50;;;;;;;0.35;74.50;100086.11;147872;1148;104523;-77
2021/03/17 05:11:00;;;;;;;25.25;12.50;;;;;;;0.35;75.98;100091.36;147814;1147;104553;-77
2021/03/17 05:14:05;;;;;;;24.45;12.55;;;;;;;0.44;74.95;100091.73;147995;1147;104539;-77
2021/03/17 05:17:11;;;;;;;23.07;11.97;;;;;;;0.54;75.90;100083.22;147805;1147;104949;-78
2021/03/17 05:20:16;;;;;;;20.23;11.15;;;;;;;0.55;74.05;100091.94;147873;1147;104898;-78
2021/03/17 05:23:20;;;;;;;20.85;11.08;;;;;;;0.70;73.95;100077.87;147782;1147;104472;-78
2021/03/17 05:26:25;;;;;;;17.30;9.63;;;;;;;0.72;73.69;100083.87;147535;1146;104580;-78
2021/03/17 05:29:29;;;;;;;17.90;10.20;;;;;;;0.76;73.88;100081.90;147682;1147;104540;-76
2021/03/17 05:32:34;;;;;;;19.12;9.88;;;;;;;0.76;75.21;100085.36;147410;1148;104524;-76
2021/03/17 05:35:38;;;;;;;21.33;10.20;;;;;;;0.90;73.98;100083.66;147391;1147;104473;-80
2021/03/17 05:38:41;;;;;;;15.30;8.40;;;;;;;0.97;73.72;100091.06;147724;1148;104587;-77
2021/03/17 05:41:44;;;;;;;17.95;8.63;;;;;;;0.99;74.42;100096.23;147863;1147;104495;-78
2021/03/17 05:44:48;;;;;;;17.27;9.15;;;;;;;0.95;73.30;100095.58;147763;1147;104566;-84
2021/03/17 05:47:51;;;;;;;16.77;8.53;;;;;;;0.96;73.37;100094.66;147775;1147;104665;-77
2021/03/17 05:50:55;;;;;;;19.82;9.95;;;;;;;0.93;73.71;100097.45;147728;1147;104498;-75
2021/03/17 05:53:59;;;;;;;14.38;8.63;;;;;;;0.88;73.86;100096.05;147682;1148;104503;-78
2021/03/17 05:57:03;;;;;;;18.70;10.32;;;;;;;0.87;73.68;100099.64;147797;1148;104523;-77
2021/03/17 06:00:10;;;;;;;18.10;9.30;;;;;;;0.82;74.83;100101.69;147632;1146;104928;-78
2021/03/17 06:03:14;;;;;;;19.03;9.33;;;;;;;0.80;74.25;100112.28;147749;1147;104915;-78
2021/03/17 06:06:19;;;;;;;20.45;11.08;;;;;;;0.77;73.62;100112.46;147937;1146;104470;-78
2021/03/17 06:09:25;;;;;;;22.20;11.65;;;;;;;0.81;73.93;100110.50;147749;1148;104444;-79
2021/03/17 06:12:31;;;;;;;20.10;10.37;;;;;;;0.87;73.64;100102.27;147370;1147;104489;-79
2021/03/17 06:15:35;;;;;;;16.07;8.78;;;;;;;0.94;74.21;100114.05;147610;1146;104470;-72
2021/03/17 06:18:42;;;;;;;17.30;10.27;;;;;;;1.01;73.80;100111.91;147765;1147;104636;-73
2021/03/17 06:21:46;;;;;;;16.67;9.77;;;;;;;1.07;73.22;100108.89;147664;1148;104841;-82
2021/03/17 06:24:49;;;;;;;15.47;8.50;;;;;;;1.18;73.34;100122.20;147519;1147;104569;-79
2021/03/17 06:27:55;;;;;;;20.52;10.75;;;;;;;1.19;72.92;100121.25;147688;1147;104553;-81
2021/03/17 06:30:59;;;;;;;17.70;9.40;;;;;;;1.30;73.10;100131.94;147765;1147;105008;-82
2021/03/17 06:34:02;;;;;;;17.67;9.50;;;;;;;1.35;73.04;100134.30;147924;1147;104535;-80
2021/03/17 06:37:05;;;;;;;17.85;9.65;;;;;;;1.35;73.02;100140.39;147720;1147;104543;-81
2021/03/17 06:40:26;;;;;;;16.55;9.15;;;;;;;1.30;72.40;100144.24;147856;1146;104463;-81
2021/03/17 06:43:39;;;;;;;14.13;8.10;;;;;;;1.39;72.83;100146.30;147904;1147;104520;-85
2021/03/17 06:46:42;;;;;;;19.98;10.25;;;;;;;1.50;72.67;100154.35;147813;1145;104546;-83
2021/03/17 06:49:47;;;;;;;18.62;10.85;;;;;;;1.53;72.13;100159.40;147455;1148;104708;-81
2021/03/17 06:52:50;;;;;;;16.90;9.87;;;;;;;1.60;73.02;100154.61;147544;1147;104454;-81
2021/03/17 06:56:09;;;;;;;19.43;10.07;;;;;;;1.61;71.81;100163.33;147855;1147;104553;-82
2021/03/17 06:59:15;;;;;;;18.45;10.15;;;;;;;1.52;72.66;100162.98;147670;1147;104547;-81
2021/03/17 07:02:20;;;;;;;18.20;10.43;;;;;;;1.55;72.69;100161.94;148037;1147;104547;-82
2021/03/17 07:05:36;;;;;;;17.70;9.73;;;;;;;1.47;73.93;100167.69;147609;1148;105574;-80
2021/03/17 07:08:39;;;;;;;20.27;10.30;;;;;;;1.40;73.06;100161.11;147925;1147;104557;-82
2021/03/17 07:11:44;;;;;;;18.80;10.03;;;;;;;1.41;72.49;100161.98;147608;1148;104555;-84
2021/03/17 07:14:47;;;;;;;16.80;8.65;;;;;;;1.53;73.25;100167.28;147590;1147;104542;-83
2021/03/17 07:17:52;;;;;;;16.23;9.93;;;;;;;1.60;72.58;100167.76;147531;1147;104839;-82
2021/03/17 07:20:58;;;;;;;14.75;8.23;;;;;;;1.65;73.06;100168.28;147419;1148;104511;-82
2021/03/17 07:24:01;;;;;;;17.40;9.50;;;;;;;1.62;73.18;100175.52;147789;1147;104545;-82
2021/03/17 07:27:16;;;;;;;15.55;8.18;;;;;;;1.67;72.53;100166.40;147644;1147;104451;-82
2021/03/17 07:30:21;;;;;;;17.60;9.65;;;;;;;1.56;73.70;100172.36;147481;1146;104494;-83
2021/03/17 07:33:25;;;;;;;21.10;10.27;;;;;;;1.52;73.08;100170.00;147495;1146;104538;-81
2021/03/17 07:36:34;;;;;;;19.10;10.83;;;;;;;1.51;73.61;100171.80;147446;1147;104530;-82
2021/03/17 07:39:39;;;;;;;20.27;10.50;;;;;;;1.59;73.28;100173.11;147944;1146;104546;-79
2021/03/17 07:42:42;;;;;;;17.80;9.80;;;;;;;1.62;72.98;100171.12;147706;1147;104466;-82
2021/03/17 07:45:46;;;;;;;16.87;9.28;;;;;;;1.65;74.02;100178.80;147769;1148;104500;-82
2021/03/17 07:48:50;;;;;;;20.90;10.65;;;;;;;1.71;73.70;100175.81;147926;1146;104540;-76
2021/03/17 07:51:56;;;;;;;18.05;9.73;;;;;;;1.70;74.80;100181.16;147862;1147;104562;-79
2021/03/17 07:55:06;;;;;;;18.35;10.28;;;;;;;1.66;73.72;100177.88;147974;1147;104498;-75
2021/03/17 07:58:11;;;;;;;16.77;8.93;;;;;;;1.73;74.36;100184.45;147839;1147;104528;-77
2021/03/17 08:01:15;;;;;;;16.37;9.05;;;;;;;1.74;73.58;100182.65;147859;1146;104444;-75
2021/03/17 08:04:18;;;;;;;13.65;8.28;;;;;;;1.68;73.86;100170.73;147846;1147;104450;-81
2021/03/17 08:07:22;;;;;;;15.40;7.43;;;;;;;1.76;73.07;100178.97;147784;1146;104594;-81
2021/03/17 08:10:25;;;;;;;12.70;7.05;;;;;;;1.84;73.65;100175.01;147820;1147;104559;-76
2021/03/17 08:13:29;;;;;;;11.73;6.95;;;;;;;1.84;72.62;100182.90;147825;1147;104547;-75
2021/03/17 08:16:34;;;;;;;11.30;6.95;;;;;;;1.82;73.99;100182.99;147776;1146;104546;-76
2021/03/17 08:19:38;;;;;;;12.15;7.25;;;;;;;1.98;72.45;100187.27;147822;1147;104652;-81
2021/03/17 08:22:41;;;;;;;14.00;7.15;;;;;;;2.08;73.04;100185.70;147810;1147;104560;-81
2021/03/17 08:25:45;;;;;;;14.98;8.45;;;;;;;2.05;73.51;100186.77;147903;1147;104522;-81
2021/03/17 08:28:54;;;;;;;12.35;7.33;;;;;;;2.05;72.64;100183.30;147825;1147;104457;-82
2021/03/17 08:31:58;;;;;;;12.68;6.92;;;;;;;2.10;72.36;100181.22;147849;1146;104524;-82
2021/03/17 08:35:01;;;;;;;15.50;8.45;;;;;;;2.23;72.64;100176.80;147779;1147;104889;-76
2021/03/17 08:38:14;;;;;;;14.35;7.92;;;;;;;2.38;72.83;100184.64;147872;1147;104606;-73
2021/03/17 08:41:38;;;;;;;12.33;7.12;;;;;;;2.42;72.91;100180.86;147464;1146;104469;-78
2021/03/17 08:44:49;;;;;;;11.00;6.95;;;;;;;2.36;72.95;100188.20;147759;1147;104471;-78
2021/03/17 08:47:52;;;;;;;12.50;8.17;;;;;;;2.43;73.30;100187.83;147745;1145;104523;-80
2021/03/17 08:50:55;;;;;;;16.77;9.67;;;;;;;2.37;72.86;100189.08;147480;1148;104483;-81
2021/03/17 08:53:58;;;;;;;81.00;39.70;;;;;;;2.38;73.10;100189.91;147862;1147;104703;-81
2021/03/17 08:57:04;;;;;;;15.32;9.65;;;;;;;2.48;73.12;100197.11;147829;1146;104495;-82
2021/03/17 09:00:10;;;;;;;15.68;9.60;;;;;;;2.46;73.07;100188.44;147753;1147;104563;-78
2021/03/17 09:03:35;;;;;;;17.15;8.35;;;;;;;2.53;72.06;100194.16;147687;1146;104460;-76
2021/03/17 09:06:58;;;;;;;30.62;18.92;;;;;;;2.64;72.76;100194.28;147707;1147;104455;-80
2021/03/17 09:10:12;;;;;;;93.80;67.70;;;;;;;2.70;72.56;100207.03;147554;1147;104538;-77
2021/03/17 09:13:37;;;;;;;17.63;11.67;;;;;;;2.60;71.35;100200.70;147383;1146;104550;-78
2021/03/17 09:17:18;;;;;;;15.32;9.05;;;;;;;2.55;71.85;100205.42;147419;1147;104582;-77
2021/03/17 09:20:29;;;;;;;14.18;8.05;;;;;;;2.71;72.02;100202.59;147527;1147;104535;-84
2021/03/17 09:23:38;;;;;;;16.87;8.43;;;;;;;2.77;72.10;100214.52;147800;1147;104444;-81
2021/03/17 09:26:42;;;;;;;12.53;7.50;;;;;;;2.83;71.58;100217.59;147452;1147;104617;-82
2021/03/17 09:29:50;;;;;;;11.57;6.53;;;;;;;2.84;70.57;100213.98;147775;1148;104495;-74
2021/03/17 09:33:03;;;;;;;12.30;7.87;;;;;;;2.86;72.17;100216.53;147777;1147;104456;-77
2021/03/17 09:36:09;;;;;;;40.80;24.35;;;;;;;2.93;70.69;100218.64;147819;1147;104523;-75
2021/03/17 09:39:16;;;;;;;20.17;11.80;;;;;;;2.82;70.98;100225.59;147834;1147;104557;-81
2021/03/17 09:42:20;;;;;;;172.07;109.83;;;;;;;2.69;71.42;100222.94;147856;1146;105013;-75
2021/03/17 09:45:26;;;;;;;34.35;24.65;;;;;;;2.68;72.12;100216.83;147797;1147;104527;-75
2021/03/17 09:48:29;;;;;;;17.15;9.15;;;;;;;2.78;72.43;100210.94;147790;1146;104457;-78
2021/03/17 09:51:34;;;;;;;10.28;6.75;;;;;;;2.90;70.03;100207.45;147676;1147;104546;-79
2021/03/17 09:54:37;;;;;;;11.10;7.20;;;;;;;2.97;70.99;100214.00;147662;1147;104551;-80
2021/03/17 09:57:40;;;;;;;10.50;6.50;;;;;;;2.98;71.33;100207.77;147926;1146;104538;-75
2021/03/17 10:00:47;;;;;;;8.75;5.80;;;;;;;3.10;70.78;100204.30;147844;1147;104467;-77
2021/03/17 10:03:51;;;;;;;10.32;7.30;;;;;;;3.16;70.79;100216.22;147528;1146;104470;-82
2021/03/17 10:06:55;;;;;;;13.13;7.80;;;;;;;3.27;70.89;100211.05;147718;1146;104544;-80
2021/03/17 10:09:59;;;;;;;25.27;14.55;;;;;;;3.42;69.81;100209.09;147886;1148;104556;-79
2021/03/17 10:13:03;;;;;;;17.15;9.75;;;;;;;3.66;70.05;100211.80;147797;1147;104624;-83
2021/03/17 10:16:10;;;;;;;12.98;7.97;;;;;;;4.00;69.75;100209.34;147989;1147;104549;-81
2021/03/17 10:19:15;;;;;;;8.23;5.95;;;;;;;4.05;68.58;100212.50;147660;1147;104849;-80
2021/03/17 10:22:19;;;;;;;9.63;5.85;;;;;;;4.27;69.07;100209.14;148225;1146;104466;-80
2021/03/17 10:25:24;;;;;;;9.65;5.72;;;;;;;4.55;67.77;100209.70;148372;1146;104469;-80
2021/03/17 10:28:28;;;;;;;7.60;5.00;;;;;;;4.71;67.44;100220.82;148236;1145;104448;-80
2021/03/17 10:31:33;;;;;;;7.95;5.30;;;;;;;4.73;66.79;100207.45;147951;1147;104499;-82
2021/03/17 10:34:38;;;;;;;8.40;5.58;;;;;;;4.65;65.31;100212.49;147932;1147;104545;-80
2021/03/17 10:37:42;;;;;;;7.25;4.55;;;;;;;4.56;66.14;100208.77;148297;1146;104447;-80
2021/03/17 10:40:45;;;;;;;9.53;6.00;;;;;;;4.56;66.76;100203.48;147651;1147;104463;-81
2021/03/17 10:43:48;;;;;;;6.78;4.75;;;;;;;4.53;66.46;100203.70;147467;1147;104566;-78
2021/03/17 10:47:00;;;;;;;7.30;4.78;;;;;;;4.39;64.93;100215.30;147910;1147;104806;-78
2021/03/17 10:50:06;;;;;;;6.97;5.20;;;;;;;4.35;66.07;100202.42;148121;1146;104561;-83
2021/03/17 10:53:21;;;;;;;7.65;5.17;;;;;;;4.47;67.39;100202.36;148133;1147;104482;-81
2021/03/17 10:56:25;;;;;;;14.55;9.10;;;;;;;4.63;67.10;100207.31;148429;1147;104472;-78
2021/03/17 10:59:30;;;;;;;12.65;8.00;;;;;;;4.81;66.22;100207.74;147593;1145;104479;-76
2021/03/17 11:02:33;;;;;;;9.48;6.00;;;;;;;4.87;66.76;100201.14;147936;1147;104527;-76
2021/03/17 11:05:36;;;;;;;9.68;7.08;;;;;;;4.81;66.44;100196.30;148120;1146;104464;-81
2021/03/17 11:08:40;;;;;;;12.57;8.57;;;;;;;4.78;65.90;100192.10;148240;1148;104847;-80
2021/03/17 11:11:51;;;;;;;11.37;7.03;;;;;;;4.82;66.11;100198.00;147931;1147;104463;-78
2021/03/17 11:14:54;;;;;;;14.30;9.37;;;;;;;4.84;64.59;100206.66;147999;1147;104550;-77
2021/03/17 11:17:58;;;;;;;14.73;9.57;;;;;;;4.84;64.56;100198.72;147882;1146;104538;-79
2021/03/17 11:21:04;;;;;;;9.38;6.72;;;;;;;4.67;64.55;100203.48;147788;1147;104541;-76
2021/03/17 11:24:17;;;;;;;12.03;8.70;;;;;;;4.58;65.67;100198.05;148270;1147;104457;-76
2021/03/17 11:27:28;;;;;;;9.13;5.63;;;;;;;4.67;65.32;100192.91;147760;1145;104557;-75
2021/03/17 11:30:41;;;;;;;8.53;5.00;;;;;;;4.72;64.85;100189.94;148544;1146;104560;-72
2021/03/17 11:33:44;;;;;;;7.53;5.42;;;;;;;4.83;65.65;100197.89;148195;1146;104530;-75
2021/03/17 11:36:50;;;;;;;7.78;5.20;;;;;;;4.92;65.60;100191.87;147816;1146;104470;-76
2021/03/17 11:39:53;;;;;;;7.58;5.17;;;;;;;4.93;65.50;100192.73;147348;1146;104492;-74
2021/03/17 11:43:06;;;;;;;7.78;4.97;;;;;;;4.83;65.26;100187.31;147643;1147;104480;-74
2021/03/17 11:46:09;;;;;;;6.60;4.58;;;;;;;4.81;65.38;100194.52;147886;1146;104576;-74
2021/03/17 11:49:13;;;;;;;7.10;4.23;;;;;;;4.77;65.52;100190.41;148010;1147;104508;-77
2021/03/17 11:52:17;;;;;;;7.12;4.72;;;;;;;4.94;63.84;100186.47;148132;1147;104433;-78
2021/03/17 11:55:21;;;;;;;7.03;4.20;;;;;;;4.98;63.92;100187.91;147723;1147;104544;-76
2021/03/17 11:58:25;;;;;;;7.90;5.60;;;;;;;4.95;64.46;100185.52;147966;1146;104535;-77
2021/03/17 12:01:28;;;;;;;14.25;10.05;;;;;;;4.92;64.57;100188.39;147794;1147;104527;-75
2021/03/17 12:04:31;;;;;;;11.97;8.05;;;;;;;4.97;64.04;100199.47;147820;1147;104519;-83
2021/03/17 12:07:34;;;;;;;7.65;6.00;;;;;;;5.02;64.70;100197.32;147729;1147;104600;-75
2021/03/17 12:10:38;;;;;;;7.85;5.12;;;;;;;5.04;64.48;100179.53;147826;1147;104489;-75
2021/03/17 12:13:41;;;;;;;9.25;5.33;;;;;;;5.04;64.66;100186.59;147834;1147;104547;-76
2021/03/17 12:16:45;;;;;;;6.67;5.00;;;;;;;5.07;65.22;100189.02;147421;1146;104452;-74
2021/03/17 12:19:48;;;;;;;11.57;8.70;;;;;;;5.15;63.90;100180.48;147573;1147;104625;-71
2021/03/17 12:22:52;;;;;;;16.15;11.20;;;;;;;5.09;63.78;100182.63;147727;1147;104546;-76
2021/03/17 12:25:55;;;;;;;13.90;9.53;;;;;;;5.04;64.08;100181.30;147843;1147;104447;-76
2021/03/17 12:28:58;;;;;;;9.65;6.33;;;;;;;5.09;64.69;100187.09;147548;1147;104565;-76
2021/03/17 12:32:01;;;;;;;9.20;6.00;;;;;;;5.10;63.78;100186.98;147329;1147;104531;-75
2021/03/17 12:35:06;;;;;;;10.75;6.12;;;;;;;5.18;64.29;100182.90;147504;1147;104466;-77
2021/03/17 12:38:09;;;;;;;15.72;11.25;;;;;;;5.19;63.51;100187.21;147558;1146;104534;-77
2021/03/17 12:41:12;;;;;;;15.75;11.80;;;;;;;5.17;64.49;100182.03;147637;1147;104550;-76
2021/03/17 12:44:15;;;;;;;14.80;10.05;;;;;;;5.11;63.88;100180.71;147850;1146;105027;-77
2021/03/17 12:47:19;;;;;;;9.25;7.20;;;;;;;4.99;63.74;100186.97;147770;1147;104457;-78
2021/03/17 12:50:25;;;;;;;7.80;5.15;;;;;;;4.89;63.31;100191.30;147849;1148;104996;-78
2021/03/17 12:53:29;;;;;;;8.20;5.40;;;;;;;4.90;63.92;100191.15;147639;1147;104628;-76
2021/03/17 12:56:33;;;;;;;10.03;7.63;;;;;;;4.90;63.71;100192.95;147472;1147;104481;-75
2021/03/17 12:59:36;;;;;;;7.60;4.90;;;;;;;4.89;63.22;100197.41;147637;1147;104454;-76
2021/03/17 13:02:40;;;;;;;6.57;4.40;;;;;;;4.90;64.06;100193.80;147681;1147;104694;-79
2021/03/17 13:05:43;;;;;;;5.80;4.17;;;;;;;4.99;63.97;100204.64;147827;1147;104462;-80
2021/03/17 13:08:46;;;;;;;7.10;4.55;;;;;;;5.01;63.44;100200.08;147687;1147;104479;-79
2021/03/17 13:11:49;;;;;;;7.17;4.70;;;;;;;4.97;62.83;100199.47;147462;1147;104555;-79
2021/03/17 13:14:52;;;;;;;12.47;6.58;;;;;;;4.91;63.30;100189.37;147585;1147;104522;-77
2021/03/17 13:17:56;;;;;;;8.48;5.62;;;;;;;4.90;62.75;100196.44;147291;1147;104525;-79
2021/03/17 13:21:00;;;;;;;7.33;5.22;;;;;;;4.88;63.72;100194.88;147671;1146;104460;-77
2021/03/17 13:24:03;;;;;;;7.95;4.83;;;;;;;4.89;63.34;100213.28;147753;1147;104584;-76
2021/03/17 13:27:07;;;;;;;8.03;4.90;;;;;;;4.91;63.14;100192.84;147865;1147;104458;-77
2021/03/17 13:30:12;;;;;;;6.80;4.40;;;;;;;4.96;64.00;100181.91;147818;1147;104547;-79
2021/03/17 13:33:16;;;;;;;7.03;4.85;;;;;;;5.05;64.22;100194.42;147542;1147;104537;-75
2021/03/17 13:36:19;;;;;;;7.58;4.95;;;;;;;5.17;63.79;100189.97;147676;1147;104497;-79
2021/03/17 13:39:22;;;;;;;12.53;5.60;;;;;;;5.37;63.69;100196.36;147759;1147;104447;-78
2021/03/17 13:42:26;;;;;;;8.28;5.33;;;;;;;5.49;63.40;100195.38;147751;1147;104503;-76
2021/03/17 13:45:30;;;;;;;8.77;5.60;;;;;;;5.46;63.46;100200.90;147748;1146;104535;-80
2021/03/17 13:48:34;;;;;;;8.15;5.25;;;;;;;5.54;63.33;100202.11;147613;1145;104706;-86
2021/03/17 13:51:38;;;;;;;7.77;5.00;;;;;;;5.55;63.60;100193.22;147764;1147;104935;-84
2021/03/17 13:54:41;;;;;;;8.07;5.10;;;;;;;5.51;62.35;100198.73;147593;1146;104457;-77
2021/03/17 13:57:44;;;;;;;7.70;4.60;;;;;;;5.44;61.98;100202.83;147499;1147;104546;-77
2021/03/17 14:00:47;;;;;;;8.03;5.50;;;;;;;5.42;63.58;100203.92;148023;1147;104530;-83
2021/03/17 14:03:50;;;;;;;7.67;5.35;;;;;;;5.46;63.40;100200.90;147662;1147;104535;-74
2021/03/17 14:06:54;;;;;;;7.40;5.27;;;;;;;5.43;63.44;100195.87;147836;1147;104876;-86
2021/03/17 14:09:57;;;;;;;12.10;8.53;;;;;;;5.44;63.97;100200.19;147870;1147;104482;-81